KMFD/MFD METAR and TAF weather

Enter ICAO airport designator
Station Type Date Time Source
KMFD METAR 2018/12/11 19:52 UTC NOAA

KMFD 111952Z 23011G20KT 8SM CLR 02/M04 A2997 RMK AO2 SLP165 T00221039


Station Type Date Time Source
KMFD Decoded METAR 2018/12/11 19:52 UTC NOAA

LAHM MUNICIPAL AIRPORT, OH, United States (KMFD) 40-49N 082-31W 395M
Dec 11, 2018 - 02:52 PM EST / 2018.12.11 1952 UTC
Wind: from the SW (230 degrees) at 13 MPH (11 KT) gusting to 23 MPH (20 KT):0
Visibility: 8 mile(s):0
Sky conditions: clear
Temperature: 36.0 F (2.2 C)
Dew Point: 25.0 F (-3.9 C)
Relative Humidity: 63%
Pressure (altimeter): 29.97 in. Hg (1014 hPa)
ob: KMFD 111952Z 23011G20KT 8SM CLR 02/M04 A2997 RMK AO2 SLP165 T00221039
cycle: 20

Station Type Date Time Source
KMFD TAF 2018/12/11 18:46 UTC NOAA

TAF
AMD KMFD 111744Z 1118/1218 23013G22KT 6SM HZ FEW250
FM120100 26008KT P6SM FEW035 SCT110
FM120500 VRB03KT P6SM BKN025
FM120800 VRB03KT P6SM OVC015


Example: see airport list